sensor_id;sensor_type;location;lat;lon;timestamp;temperature;humidity
45729;DHT22;31439;53.512;10.206;2023-07-13T00:01:43;17.50;99.90
45729;DHT22;31439;53.512;10.206;2023-07-13T00:04:09;17.60;99.90
45729;DHT22;31439;53.512;10.206;2023-07-13T00:06:34;17.60;99.90
45729;DHT22;31439;53.512;10.206;2023-07-13T00:09:00;17.60;99.90
45729;DHT22;31439;53.512;10.206;2023-07-13T00:11:27;17.50;99.90
45729;DHT22;31439;53.512;10.206;2023-07-13T00:13:53;17.60;99.90
45729;DHT22;31439;53.512;10.206;2023-07-13T00:16:19;17.50;99.90
45729;DHT22;31439;53.512;10.206;2023-07-13T00:18:45;17.60;99.90
45729;DHT22;31439;53.512;10.206;2023-07-13T00:21:11;17.40;99.90
45729;DHT22;31439;53.512;10.206;2023-07-13T00:23:39;17.40;99.90
45729;DHT22;31439;53.512;10.206;2023-07-13T00:26:09;17.40;99.90
45729;DHT22;31439;53.512;10.206;2023-07-13T00:28:35;17.40;99.90
45729;DHT22;31439;53.512;10.206;2023-07-13T00:31:01;17.30;99.90
45729;DHT22;31439;53.512;10.206;2023-07-13T00:33:28;17.30;99.90
45729;DHT22;31439;53.512;10.206;2023-07-13T00:35:55;17.30;99.90
45729;DHT22;31439;53.512;10.206;2023-07-13T00:38:20;17.30;99.90
45729;DHT22;31439;53.512;10.206;2023-07-13T00:40:46;17.30;99.90
45729;DHT22;31439;53.512;10.206;2023-07-13T00:43:22;17.20;99.90
45729;DHT22;31439;53.512;10.206;2023-07-13T00:48:17;17.00;99.90
45729;DHT22;31439;53.512;10.206;2023-07-13T00:50:45;17.10;99.90
45729;DHT22;31439;53.512;10.206;2023-07-13T00:53:12;17.10;99.90
45729;DHT22;31439;53.512;10.206;2023-07-13T00:55:39;17.00;99.90
45729;DHT22;31439;53.512;10.206;2023-07-13T00:58:05;17.00;99.90
45729;DHT22;31439;53.512;10.206;2023-07-13T01:00:34;17.00;99.90
45729;DHT22;31439;53.512;10.206;2023-07-13T01:03:00;17.00;99.90
45729;DHT22;31439;53.512;10.206;2023-07-13T01:05:30;17.00;99.90
45729;DHT22;31439;53.512;10.206;2023-07-13T01:07:57;16.90;99.90
45729;DHT22;31439;53.512;10.206;2023-07-13T01:10:23;16.90;99.90
45729;DHT22;31439;53.512;10.206;2023-07-13T01:12:49;16.90;99.90
45729;DHT22;31439;53.512;10.206;2023-07-13T01:15:38;17.00;99.90
45729;DHT22;31439;53.512;10.206;2023-07-13T01:18:07;16.80;99.90
45729;DHT22;31439;53.512;10.206;2023-07-13T01:20:33;16.70;99.90
45729;DHT22;31439;53.512;10.206;2023-07-13T01:23:08;16.70;99.90
45729;DHT22;31439;53.512;10.206;2023-07-13T01:25:35;16.70;99.90
45729;DHT22;31439;53.512;10.206;2023-07-13T01:28:02;16.70;99.90
45729;DHT22;31439;53.512;10.206;2023-07-13T01:30:27;16.70;99.90
45729;DHT22;31439;53.512;10.206;2023-07-13T01:32:53;16.70;99.90
45729;DHT22;31439;53.512;10.206;2023-07-13T01:35:18;16.70;99.90
45729;DHT22;31439;53.512;10.206;2023-07-13T01:37:44;16.70;99.90
45729;DHT22;31439;53.512;10.206;2023-07-13T01:40:10;16.70;99.90
45729;DHT22;31439;53.512;10.206;2023-07-13T01:42:37;16.70;99.90
45729;DHT22;31439;53.512;10.206;2023-07-13T01:45:03;16.70;99.90
45729;DHT22;31439;53.512;10.206;2023-07-13T01:47:29;16.70;99.90
45729;DHT22;31439;53.512;10.206;2023-07-13T01:49:56;16.70;99.90
45729;DHT22;31439;53.512;10.206;2023-07-13T01:52:22;16.70;99.90
45729;DHT22;31439;53.512;10.206;2023-07-13T01:54:48;16.80;99.90
45729;DHT22;31439;53.512;10.206;2023-07-13T01:57:14;16.70;99.90
45729;DHT22;31439;53.512;10.206;2023-07-13T01:59:39;16.70;99.90
45729;DHT22;31439;53.512;10.206;2023-07-13T02:02:05;16.60;99.90
45729;DHT22;31439;53.512;10.206;2023-07-13T02:04:30;16.60;99.90
45729;DHT22;31439;53.512;10.206;2023-07-13T02:06:56;16.70;99.90
45729;DHT22;31439;53.512;10.206;2023-07-13T02:09:21;16.60;99.90
45729;DHT22;31439;53.512;10.206;2023-07-13T02:11:47;16.70;99.90
45729;DHT22;31439;53.512;10.206;2023-07-13T02:14:14;16.60;99.90
45729;DHT22;31439;53.512;10.206;2023-07-13T02:16:40;16.60;99.90
45729;DHT22;31439;53.512;10.206;2023-07-13T02:19:06;16.50;99.90
45729;DHT22;31439;53.512;10.206;2023-07-13T02:21:32;16.60;99.90
45729;DHT22;31439;53.512;10.206;2023-07-13T02:23:57;16.60;99.90
45729;DHT22;31439;53.512;10.206;2023-07-13T02:26:23;16.50;99.90
45729;DHT22;31439;53.512;10.206;2023-07-13T02:28:49;16.50;99.90
45729;DHT22;31439;53.512;10.206;2023-07-13T02:31:15;16.40;99.90
45729;DHT22;31439;53.512;10.206;2023-07-13T02:33:41;16.40;99.90
45729;DHT22;31439;53.512;10.206;2023-07-13T02:36:07;16.40;99.90
45729;DHT22;31439;53.512;10.206;2023-07-13T02:38:34;16.40;99.90
45729;DHT22;31439;53.512;10.206;2023-07-13T02:41:01;16.40;99.90
45729;DHT22;31439;53.512;10.206;2023-07-13T02:43:27;16.30;99.90
45729;DHT22;31439;53.512;10.206;2023-07-13T02:45:53;16.40;99.90
45729;DHT22;31439;53.512;10.206;2023-07-13T02:48:18;16.30;99.90
45729;DHT22;31439;53.512;10.206;2023-07-13T02:50:45;16.20;99.90
45729;DHT22;31439;53.512;10.206;2023-07-13T02:53:10;16.30;99.90
45729;DHT22;31439;53.512;10.206;2023-07-13T02:55:36;16.20;99.90
45729;DHT22;31439;53.512;10.206;2023-07-13T02:58:02;16.20;99.90
45729;DHT22;31439;53.512;10.206;2023-07-13T03:00:27;16.20;99.90
45729;DHT22;31439;53.512;10.206;2023-07-13T03:02:53;16.30;99.90
45729;DHT22;31439;53.512;10.206;2023-07-13T03:05:23;16.20;99.90
45729;DHT22;31439;53.512;10.206;2023-07-13T03:07:49;16.10;99.90
45729;DHT22;31439;53.512;10.206;2023-07-13T03:10:14;16.10;99.90
45729;DHT22;31439;53.512;10.206;2023-07-13T03:12:41;16.10;99.90
45729;DHT22;31439;53.512;10.206;2023-07-13T03:15:07;16.00;99.90
45729;DHT22;31439;53.512;10.206;2023-07-13T03:17:33;16.00;99.90
45729;DHT22;31439;53.512;10.206;2023-07-13T03:19:58;16.10;99.90
45729;DHT22;31439;53.512;10.206;2023-07-13T03:22:24;16.10;99.90
45729;DHT22;31439;53.512;10.206;2023-07-13T03:24:49;16.10;99.90
45729;DHT22;31439;53.512;10.206;2023-07-13T03:27:17;16.10;99.90
45729;DHT22;31439;53.512;10.206;2023-07-13T03:29:42;16.10;99.90
45729;DHT22;31439;53.512;10.206;2023-07-13T03:32:08;16.10;99.90
45729;DHT22;31439;53.512;10.206;2023-07-13T03:34:34;16.00;99.90
45729;DHT22;31439;53.512;10.206;2023-07-13T03:36:59;16.00;99.90
45729;DHT22;31439;53.512;10.206;2023-07-13T03:39:25;16.10;99.90
45729;DHT22;31439;53.512;10.206;2023-07-13T03:41:50;16.00;99.90
45729;DHT22;31439;53.512;10.206;2023-07-13T03:44:17;16.00;99.90
45729;DHT22;31439;53.512;10.206;2023-07-13T03:46:43;16.00;99.90
45729;DHT22;31439;53.512;10.206;2023-07-13T03:49:09;16.10;99.90
45729;DHT22;31439;53.512;10.206;2023-07-13T03:51:35;16.00;99.90
45729;DHT22;31439;53.512;10.206;2023-07-13T03:54:00;16.00;99.90
45729;DHT22;31439;53.512;10.206;2023-07-13T03:56:28;16.00;99.90
45729;DHT22;31439;53.512;10.206;2023-07-13T03:58:54;16.00;99.90
45729;DHT22;31439;53.512;10.206;2023-07-13T04:01:21;16.10;99.90
45729;DHT22;31439;53.512;10.206;2023-07-13T04:03:47;15.90;99.90
45729;DHT22;31439;53.512;10.206;2023-07-13T04:06:19;16.00;99.90
45729;DHT22;31439;53.512;10.206;2023-07-13T04:08:47;16.10;99.90
45729;DHT22;31439;53.512;10.206;2023-07-13T04:11:14;16.00;99.90
45729;DHT22;31439;53.512;10.206;2023-07-13T04:13:40;16.00;99.90
45729;DHT22;31439;53.512;10.206;2023-07-13T04:16:05;15.90;99.90
45729;DHT22;31439;53.512;10.206;2023-07-13T04:18:31;16.00;99.90
45729;DHT22;31439;53.512;10.206;2023-07-13T04:20:57;16.00;99.90
45729;DHT22;31439;53.512;10.206;2023-07-13T04:23:22;16.00;99.90
45729;DHT22;31439;53.512;10.206;2023-07-13T04:25:51;16.00;99.90
45729;DHT22;31439;53.512;10.206;2023-07-13T04:28:20;16.10;99.90
45729;DHT22;31439;53.512;10.206;2023-07-13T04:30:46;16.10;99.90
45729;DHT22;31439;53.512;10.206;2023-07-13T04:33:12;16.10;99.90
45729;DHT22;31439;53.512;10.206;2023-07-13T04:35:38;16.00;99.90
45729;DHT22;31439;53.512;10.206;2023-07-13T04:38:04;16.10;99.90
45729;DHT22;31439;53.512;10.206;2023-07-13T04:40:30;16.00;99.90
45729;DHT22;31439;53.512;10.206;2023-07-13T04:42:55;16.00;99.90
45729;DHT22;31439;53.512;10.206;2023-07-13T04:45:21;16.00;99.90
45729;DHT22;31439;53.512;10.206;2023-07-13T04:47:49;16.10;99.90
45729;DHT22;31439;53.512;10.206;2023-07-13T04:50:15;16.10;99.90
45729;DHT22;31439;53.512;10.206;2023-07-13T04:52:45;16.20;99.90
45729;DHT22;31439;53.512;10.206;2023-07-13T04:55:10;16.20;99.90
45729;DHT22;31439;53.512;10.206;2023-07-13T04:57:36;16.20;99.90
45729;DHT22;31439;53.512;10.206;2023-07-13T05:00:03;16.40;99.90
45729;DHT22;31439;53.512;10.206;2023-07-13T05:02:32;16.40;99.90
45729;DHT22;31439;53.512;10.206;2023-07-13T05:04:58;16.60;99.90
45729;DHT22;31439;53.512;10.206;2023-07-13T05:07:25;16.70;99.90
45729;DHT22;31439;53.512;10.206;2023-07-13T05:09:51;16.70;99.90
45729;DHT22;31439;53.512;10.206;2023-07-13T05:12:16;16.70;99.90
45729;DHT22;31439;53.512;10.206;2023-07-13T05:14:42;16.70;99.90
45729;DHT22;31439;53.512;10.206;2023-07-13T05:17:08;16.60;99.90
45729;DHT22;31439;53.512;10.206;2023-07-13T05:19:34;16.60;99.90
45729;DHT22;31439;53.512;10.206;2023-07-13T05:21:59;16.70;99.90
45729;DHT22;31439;53.512;10.206;2023-07-13T05:24:25;16.60;99.90
45729;DHT22;31439;53.512;10.206;2023-07-13T05:26:50;16.60;99.90
45729;DHT22;31439;53.512;10.206;2023-07-13T05:29:16;16.30;99.90
45729;DHT22;31439;53.512;10.206;2023-07-13T05:31:42;16.80;99.90
45729;DHT22;31439;53.512;10.206;2023-07-13T05:34:07;16.80;99.90
45729;DHT22;31439;53.512;10.206;2023-07-13T05:36:33;16.90;99.90
45729;DHT22;31439;53.512;10.206;2023-07-13T05:38:59;17.00;99.90
45729;DHT22;31439;53.512;10.206;2023-07-13T05:41:25;17.10;99.90
45729;DHT22;31439;53.512;10.206;2023-07-13T05:43:50;17.00;99.90
45729;DHT22;31439;53.512;10.206;2023-07-13T05:46:16;17.00;99.90
45729;DHT22;31439;53.512;10.206;2023-07-13T05:48:42;17.10;99.90
45729;DHT22;31439;53.512;10.206;2023-07-13T05:51:07;17.20;99.90
45729;DHT22;31439;53.512;10.206;2023-07-13T05:53:34;17.20;99.90
45729;DHT22;31439;53.512;10.206;2023-07-13T05:56:00;17.30;99.90
45729;DHT22;31439;53.512;10.206;2023-07-13T05:58:25;17.50;99.90
45729;DHT22;31439;53.512;10.206;2023-07-13T06:01:02;17.50;99.90
45729;DHT22;31439;53.512;10.206;2023-07-13T06:03:28;17.50;99.90
45729;DHT22;31439;53.512;10.206;2023-07-13T06:05:54;17.40;99.90
45729;DHT22;31439;53.512;10.206;2023-07-13T06:08:19;17.40;99.90
45729;DHT22;31439;53.512;10.206;2023-07-13T06:10:45;17.40;99.90
45729;DHT22;31439;53.512;10.206;2023-07-13T06:13:11;17.40;99.90
45729;DHT22;31439;53.512;10.206;2023-07-13T06:15:36;17.50;99.90
45729;DHT22;31439;53.512;10.206;2023-07-13T06:18:02;17.50;99.90
45729;DHT22;31439;53.512;10.206;2023-07-13T06:20:28;17.60;99.90
45729;DHT22;31439;53.512;10.206;2023-07-13T06:22:54;17.70;99.90
45729;DHT22;31439;53.512;10.206;2023-07-13T06:25:20;17.80;99.90
45729;DHT22;31439;53.512;10.206;2023-07-13T06:27:45;17.80;99.90
45729;DHT22;31439;53.512;10.206;2023-07-13T06:30:11;17.90;99.90
45729;DHT22;31439;53.512;10.206;2023-07-13T06:32:37;17.90;99.90
45729;DHT22;31439;53.512;10.206;2023-07-13T06:35:03;18.00;99.90
45729;DHT22;31439;53.512;10.206;2023-07-13T06:37:29;18.00;99.90
45729;DHT22;31439;53.512;10.206;2023-07-13T06:39:54;18.10;99.90
45729;DHT22;31439;53.512;10.206;2023-07-13T06:42:20;18.10;99.90
45729;DHT22;31439;53.512;10.206;2023-07-13T06:44:46;18.10;99.90
45729;DHT22;31439;53.512;10.206;2023-07-13T06:47:12;18.10;99.90
45729;DHT22;31439;53.512;10.206;2023-07-13T06:49:37;18.10;99.90
45729;DHT22;31439;53.512;10.206;2023-07-13T06:52:03;18.10;99.90
45729;DHT22;31439;53.512;10.206;2023-07-13T06:54:29;18.10;99.90
45729;DHT22;31439;53.512;10.206;2023-07-13T06:56:55;18.10;99.90
45729;DHT22;31439;53.512;10.206;2023-07-13T06:59:20;18.20;99.90
45729;DHT22;31439;53.512;10.206;2023-07-13T07:01:46;18.20;99.90
45729;DHT22;31439;53.512;10.206;2023-07-13T07:04:11;18.20;99.90
45729;DHT22;31439;53.512;10.206;2023-07-13T07:06:37;18.20;99.90
45729;DHT22;31439;53.512;10.206;2023-07-13T07:09:03;18.20;99.90
45729;DHT22;31439;53.512;10.206;2023-07-13T07:11:28;18.20;99.90
45729;DHT22;31439;53.512;10.206;2023-07-13T07:13:54;18.20;99.90
45729;DHT22;31439;53.512;10.206;2023-07-13T07:16:21;18.20;99.90
45729;DHT22;31439;53.512;10.206;2023-07-13T07:18:47;18.20;99.90
45729;DHT22;31439;53.512;10.206;2023-07-13T07:21:13;18.20;99.90
45729;DHT22;31439;53.512;10.206;2023-07-13T07:23:39;18.20;99.90
45729;DHT22;31439;53.512;10.206;2023-07-13T07:26:05;18.20;99.90
45729;DHT22;31439;53.512;10.206;2023-07-13T07:28:30;18.20;99.90
45729;DHT22;31439;53.512;10.206;2023-07-13T07:30:57;18.20;99.90
45729;DHT22;31439;53.512;10.206;2023-07-13T07:33:24;18.10;99.90
45729;DHT22;31439;53.512;10.206;2023-07-13T07:35:50;18.20;99.90
45729;DHT22;31439;53.512;10.206;2023-07-13T07:38:16;18.30;99.90
45729;DHT22;31439;53.512;10.206;2023-07-13T07:40:44;18.30;99.90
45729;DHT22;31439;53.512;10.206;2023-07-13T07:43:11;18.30;99.90
45729;DHT22;31439;53.512;10.206;2023-07-13T07:45:41;18.40;99.90
45729;DHT22;31439;53.512;10.206;2023-07-13T07:48:07;18.40;99.90
45729;DHT22;31439;53.512;10.206;2023-07-13T07:50:34;18.40;99.90
45729;DHT22;31439;53.512;10.206;2023-07-13T07:53:00;18.40;99.90
45729;DHT22;31439;53.512;10.206;2023-07-13T07:55:27;18.50;99.90
45729;DHT22;31439;53.512;10.206;2023-07-13T07:57:53;18.60;99.90
45729;DHT22;31439;53.512;10.206;2023-07-13T08:00:19;18.60;99.90
45729;DHT22;31439;53.512;10.206;2023-07-13T08:02:45;18.60;99.90
45729;DHT22;31439;53.512;10.206;2023-07-13T08:05:11;19.10;99.90
45729;DHT22;31439;53.512;10.206;2023-07-13T08:07:37;18.70;99.90
45729;DHT22;31439;53.512;10.206;2023-07-13T08:10:07;18.70;99.90
45729;DHT22;31439;53.512;10.206;2023-07-13T08:12:39;18.80;99.90
45729;DHT22;31439;53.512;10.206;2023-07-13T08:15:08;18.90;99.90
45729;DHT22;31439;53.512;10.206;2023-07-13T08:17:34;18.90;99.90
45729;DHT22;31439;53.512;10.206;2023-07-13T08:20:00;18.90;99.90
45729;DHT22;31439;53.512;10.206;2023-07-13T08:22:27;19.00;99.90
45729;DHT22;31439;53.512;10.206;2023-07-13T08:24:52;19.10;99.90
45729;DHT22;31439;53.512;10.206;2023-07-13T08:27:22;19.10;99.90
45729;DHT22;31439;53.512;10.206;2023-07-13T08:29:49;19.00;99.90
45729;DHT22;31439;53.512;10.206;2023-07-13T08:32:15;19.00;99.90
45729;DHT22;31439;53.512;10.206;2023-07-13T08:34:40;19.20;99.90
45729;DHT22;31439;53.512;10.206;2023-07-13T08:37:06;19.20;99.90
45729;DHT22;31439;53.512;10.206;2023-07-13T08:39:33;19.30;99.90
45729;DHT22;31439;53.512;10.206;2023-07-13T08:42:05;19.40;99.90
45729;DHT22;31439;53.512;10.206;2023-07-13T08:44:49;19.50;99.90
45729;DHT22;31439;53.512;10.206;2023-07-13T08:47:17;19.50;99.90
45729;DHT22;31439;53.512;10.206;2023-07-13T08:49:46;19.50;99.90
45729;DHT22;31439;53.512;10.206;2023-07-13T08:52:39;19.70;99.90
45729;DHT22;31439;53.512;10.206;2023-07-13T08:57:42;19.70;99.90
45729;DHT22;31439;53.512;10.206;2023-07-13T09:00:11;19.80;99.90
45729;DHT22;31439;53.512;10.206;2023-07-13T09:02:58;19.80;99.90
45729;DHT22;31439;53.512;10.206;2023-07-13T09:05:33;19.90;99.90
45729;DHT22;31439;53.512;10.206;2023-07-13T09:08:09;19.90;99.90
45729;DHT22;31439;53.512;10.206;2023-07-13T09:10:52;20.10;99.90
45729;DHT22;31439;53.512;10.206;2023-07-13T09:13:28;20.10;99.90
45729;DHT22;31439;53.512;10.206;2023-07-13T09:15:59;20.20;99.90
45729;DHT22;31439;53.512;10.206;2023-07-13T09:18:41;20.40;99.90
45729;DHT22;31439;53.512;10.206;2023-07-13T09:21:15;20.50;99.90
45729;DHT22;31439;53.512;10.206;2023-07-13T09:23:41;20.50;99.90
45729;DHT22;31439;53.512;10.206;2023-07-13T09:26:28;20.60;99.90
45729;DHT22;31439;53.512;10.206;2023-07-13T09:28:59;20.60;99.90
45729;DHT22;31439;53.512;10.206;2023-07-13T09:31:42;20.20;99.90
45729;DHT22;31439;53.512;10.206;2023-07-13T09:34:12;20.10;99.90
45729;DHT22;31439;53.512;10.206;2023-07-13T09:36:39;19.90;99.90
45729;DHT22;31439;53.512;10.206;2023-07-13T09:44:34;19.60;99.90
45729;DHT22;31439;53.512;10.206;2023-07-13T09:47:12;19.70;99.90
45729;DHT22;31439;53.512;10.206;2023-07-13T09:49:40;19.60;99.90
45729;DHT22;31439;53.512;10.206;2023-07-13T09:52:11;19.70;99.90
45729;DHT22;31439;53.512;10.206;2023-07-13T09:54:37;19.70;99.90
45729;DHT22;31439;53.512;10.206;2023-07-13T09:57:13;19.80;99.90
45729;DHT22;31439;53.512;10.206;2023-07-13T09:59:42;20.00;99.90
45729;DHT22;31439;53.512;10.206;2023-07-13T10:02:40;20.30;99.90
45729;DHT22;31439;53.512;10.206;2023-07-13T10:05:13;20.50;99.90
45729;DHT22;31439;53.512;10.206;2023-07-13T10:07:43;20.70;99.90
45729;DHT22;31439;53.512;10.206;2023-07-13T10:10:21;20.90;99.90
45729;DHT22;31439;53.512;10.206;2023-07-13T10:12:48;21.10;99.90
45729;DHT22;31439;53.512;10.206;2023-07-13T10:15:18;21.20;99.90
45729;DHT22;31439;53.512;10.206;2023-07-13T10:17:45;21.30;99.90
45729;DHT22;31439;53.512;10.206;2023-07-13T10:20:11;21.10;99.90
45729;DHT22;31439;53.512;10.206;2023-07-13T10:25:23;20.80;99.90
45729;DHT22;31439;53.512;10.206;2023-07-13T10:27:56;20.70;99.90
45729;DHT22;31439;53.512;10.206;2023-07-13T10:30:24;20.60;99.90
45729;DHT22;31439;53.512;10.206;2023-07-13T10:33:02;20.50;99.90
45729;DHT22;31439;53.512;10.206;2023-07-13T10:35:29;20.50;99.90
45729;DHT22;31439;53.512;10.206;2023-07-13T10:38:20;20.40;99.90
45729;DHT22;31439;53.512;10.206;2023-07-13T10:41:09;20.40;99.90
45729;DHT22;31439;53.512;10.206;2023-07-13T10:43:41;20.40;99.90
45729;DHT22;31439;53.512;10.206;2023-07-13T10:46:12;20.30;99.90
45729;DHT22;31439;53.512;10.206;2023-07-13T10:48:40;20.50;99.90
45729;DHT22;31439;53.512;10.206;2023-07-13T10:51:09;20.80;99.90
45729;DHT22;31439;53.512;10.206;2023-07-13T10:53:37;20.90;99.90
45729;DHT22;31439;53.512;10.206;2023-07-13T10:58:42;20.90;99.90
45729;DHT22;31439;53.512;10.206;2023-07-13T11:01:13;21.00;99.90
45729;DHT22;31439;53.512;10.206;2023-07-13T11:03:58;21.20;99.90
45729;DHT22;31439;53.512;10.206;2023-07-13T11:11:42;21.50;99.90
45729;DHT22;31439;53.512;10.206;2023-07-13T11:14:27;21.40;99.90
45729;DHT22;31439;53.512;10.206;2023-07-13T11:16:53;21.00;99.90
45729;DHT22;31439;53.512;10.206;2023-07-13T11:22:11;20.90;99.90
45729;DHT22;31439;53.512;10.206;2023-07-13T11:25:20;21.10;99.90
45729;DHT22;31439;53.512;10.206;2023-07-13T11:27:52;21.40;99.90
45729;DHT22;31439;53.512;10.206;2023-07-13T11:35:59;21.40;99.90
45729;DHT22;31439;53.512;10.206;2023-07-13T11:38:42;21.60;99.90
45729;DHT22;31439;53.512;10.206;2023-07-13T11:41:45;21.80;99.90
45729;DHT22;31439;53.512;10.206;2023-07-13T11:44:12;22.10;99.90
45729;DHT22;31439;53.512;10.206;2023-07-13T11:46:38;22.30;99.90
45729;DHT22;31439;53.512;10.206;2023-07-13T11:49:07;22.30;99.90
45729;DHT22;31439;53.512;10.206;2023-07-13T11:51:37;22.20;99.90
45729;DHT22;31439;53.512;10.206;2023-07-13T11:54:25;22.40;99.90
45729;DHT22;31439;53.512;10.206;2023-07-13T11:57:30;22.30;99.90
45729;DHT22;31439;53.512;10.206;2023-07-13T12:00:04;22.20;99.90
45729;DHT22;31439;53.512;10.206;2023-07-13T12:02:43;22.10;99.90
45729;DHT22;31439;53.512;10.206;2023-07-13T12:05:12;22.30;99.90
45729;DHT22;31439;53.512;10.206;2023-07-13T12:07:38;22.50;99.90
45729;DHT22;31439;53.512;10.206;2023-07-13T12:12:55;22.80;99.90
45729;DHT22;31439;53.512;10.206;2023-07-13T12:15:22;22.90;99.90
45729;DHT22;31439;53.512;10.206;2023-07-13T12:17:49;22.90;99.90
45729;DHT22;31439;53.512;10.206;2023-07-13T12:20:21;22.80;99.90
45729;DHT22;31439;53.512;10.206;2023-07-13T12:22:50;22.50;99.90
45729;DHT22;31439;53.512;10.206;2023-07-13T12:25:16;22.30;99.90
45729;DHT22;31439;53.512;10.206;2023-07-13T12:27:47;22.20;99.90
45729;DHT22;31439;53.512;10.206;2023-07-13T12:30:32;22.10;99.90
45729;DHT22;31439;53.512;10.206;2023-07-13T12:33:10;21.90;99.90
45729;DHT22;31439;53.512;10.206;2023-07-13T12:35:42;21.80;99.90
45729;DHT22;31439;53.512;10.206;2023-07-13T12:38:11;21.10;99.90
45729;DHT22;31439;53.512;10.206;2023-07-13T12:40:38;20.10;99.90
45729;DHT22;31439;53.512;10.206;2023-07-13T12:43:10;19.50;99.90
45729;DHT22;31439;53.512;10.206;2023-07-13T12:45:37;19.00;99.90
45729;DHT22;31439;53.512;10.206;2023-07-13T12:48:12;18.70;99.90
45729;DHT22;31439;53.512;10.206;2023-07-13T12:50:43;18.40;99.90
45729;DHT22;31439;53.512;10.206;2023-07-13T12:53:19;18.20;99.90
45729;DHT22;31439;53.512;10.206;2023-07-13T12:55:57;18.20;99.90
45729;DHT22;31439;53.512;10.206;2023-07-13T13:01:01;18.70;99.90
45729;DHT22;31439;53.512;10.206;2023-07-13T13:03:32;18.10;99.90
45729;DHT22;31439;53.512;10.206;2023-07-13T13:06:19;18.00;99.90
45729;DHT22;31439;53.512;10.206;2023-07-13T13:08:47;18.10;99.90
45729;DHT22;31439;53.512;10.206;2023-07-13T13:11:14;18.10;99.90
45729;DHT22;31439;53.512;10.206;2023-07-13T13:13:41;18.20;99.90
45729;DHT22;31439;53.512;10.206;2023-07-13T13:18:51;18.20;99.90
45729;DHT22;31439;53.512;10.206;2023-07-13T13:21:18;18.30;99.90
45729;DHT22;31439;53.512;10.206;2023-07-13T13:23:44;18.40;99.90
45729;DHT22;31439;53.512;10.206;2023-07-13T13:26:12;18.40;99.90
45729;DHT22;31439;53.512;10.206;2023-07-13T13:28:38;18.40;99.90
45729;DHT22;31439;53.512;10.206;2023-07-13T13:31:04;18.50;99.90
45729;DHT22;31439;53.512;10.206;2023-07-13T13:33:30;18.50;99.90
45729;DHT22;31439;53.512;10.206;2023-07-13T13:35:56;18.50;99.90
45729;DHT22;31439;53.512;10.206;2023-07-13T13:38:27;18.50;99.90
45729;DHT22;31439;53.512;10.206;2023-07-13T13:40:53;18.60;99.90
45729;DHT22;31439;53.512;10.206;2023-07-13T13:43:24;18.60;99.90
45729;DHT22;31439;53.512;10.206;2023-07-13T13:45:57;18.70;99.90
45729;DHT22;31439;53.512;10.206;2023-07-13T13:48:33;18.90;99.90
45729;DHT22;31439;53.512;10.206;2023-07-13T13:51:00;19.00;99.90
45729;DHT22;31439;53.512;10.206;2023-07-13T13:53:26;19.10;99.90
45729;DHT22;31439;53.512;10.206;2023-07-13T13:55:52;19.10;99.90
45729;DHT22;31439;53.512;10.206;2023-07-13T13:58:21;19.10;99.90
45729;DHT22;31439;53.512;10.206;2023-07-13T14:00:47;19.10;99.90
45729;DHT22;31439;53.512;10.206;2023-07-13T14:03:21;19.00;99.90
45729;DHT22;31439;53.512;10.206;2023-07-13T14:05:48;18.90;99.90
45729;DHT22;31439;53.512;10.206;2023-07-13T14:08:15;18.90;99.90
45729;DHT22;31439;53.512;10.206;2023-07-13T14:10:41;18.90;99.90
45729;DHT22;31439;53.512;10.206;2023-07-13T14:13:16;19.00;99.90
45729;DHT22;31439;53.512;10.206;2023-07-13T14:15:44;18.90;99.90
45729;DHT22;31439;53.512;10.206;2023-07-13T14:18:10;18.90;99.90
45729;DHT22;31439;53.512;10.206;2023-07-13T14:20:36;18.80;99.90
45729;DHT22;31439;53.512;10.206;2023-07-13T14:23:01;18.80;99.90
45729;DHT22;31439;53.512;10.206;2023-07-13T14:25:27;18.80;99.90
45729;DHT22;31439;53.512;10.206;2023-07-13T14:27:56;18.90;99.90
45729;DHT22;31439;53.512;10.206;2023-07-13T14:30:24;18.90;99.90
45729;DHT22;31439;53.512;10.206;2023-07-13T14:32:53;18.90;99.90
45729;DHT22;31439;53.512;10.206;2023-07-13T14:35:21;18.90;99.90
45729;DHT22;31439;53.512;10.206;2023-07-13T14:37:48;18.90;99.90
45729;DHT22;31439;53.512;10.206;2023-07-13T14:40:24;19.00;99.90
45729;DHT22;31439;53.512;10.206;2023-07-13T14:42:51;19.00;99.90
45729;DHT22;31439;53.512;10.206;2023-07-13T14:45:19;19.00;99.90
45729;DHT22;31439;53.512;10.206;2023-07-13T14:47:45;19.00;99.90
45729;DHT22;31439;53.512;10.206;2023-07-13T14:50:18;19.00;99.90
45729;DHT22;31439;53.512;10.206;2023-07-13T14:52:44;19.10;99.90
45729;DHT22;31439;53.512;10.206;2023-07-13T14:55:12;19.10;99.90
45729;DHT22;31439;53.512;10.206;2023-07-13T14:57:41;19.20;99.90
45729;DHT22;31439;53.512;10.206;2023-07-13T15:00:14;19.20;99.90
45729;DHT22;31439;53.512;10.206;2023-07-13T15:02:42;19.20;99.90
45729;DHT22;31439;53.512;10.206;2023-07-13T15:05:21;19.20;99.90
45729;DHT22;31439;53.512;10.206;2023-07-13T15:07:48;19.30;99.90
45729;DHT22;31439;53.512;10.206;2023-07-13T15:10:21;19.40;99.90
45729;DHT22;31439;53.512;10.206;2023-07-13T15:12:47;19.40;99.90
45729;DHT22;31439;53.512;10.206;2023-07-13T15:15:13;19.50;99.90
45729;DHT22;31439;53.512;10.206;2023-07-13T15:17:44;19.50;99.90
45729;DHT22;31439;53.512;10.206;2023-07-13T15:20:29;19.40;99.90
45729;DHT22;31439;53.512;10.206;2023-07-13T15:22:55;19.40;99.90
45729;DHT22;31439;53.512;10.206;2023-07-13T15:25:24;19.40;99.90
45729;DHT22;31439;53.512;10.206;2023-07-13T15:27:51;19.40;99.90
45729;DHT22;31439;53.512;10.206;2023-07-13T15:30:17;19.50;99.90
45729;DHT22;31439;53.512;10.206;2023-07-13T15:32:44;19.60;99.90
45729;DHT22;31439;53.512;10.206;2023-07-13T15:35:15;19.70;99.90
45729;DHT22;31439;53.512;10.206;2023-07-13T15:37:41;19.70;99.90
45729;DHT22;31439;53.512;10.206;2023-07-13T15:40:08;19.70;99.90
45729;DHT22;31439;53.512;10.206;2023-07-13T15:42:34;19.70;99.90
45729;DHT22;31439;53.512;10.206;2023-07-13T15:45:01;20.70;99.90
45729;DHT22;31439;53.512;10.206;2023-07-13T15:47:27;19.60;99.90
45729;DHT22;31439;53.512;10.206;2023-07-13T15:49:53;19.60;99.90
45729;DHT22;31439;53.512;10.206;2023-07-13T15:52:23;19.50;99.90
45729;DHT22;31439;53.512;10.206;2023-07-13T15:54:49;19.50;99.90
45729;DHT22;31439;53.512;10.206;2023-07-13T15:57:16;19.50;99.90
45729;DHT22;31439;53.512;10.206;2023-07-13T15:59:42;19.40;99.90
45729;DHT22;31439;53.512;10.206;2023-07-13T16:02:13;19.40;99.90